createdAt,value
2023-03-25T00:01:43.640Z,-23418.19
2023-03-25T00:03:50.406Z,-23417.38
2023-03-25T00:05:53.126Z,-23410.06
2023-03-25T00:07:57.331Z,-23404.84
2023-03-25T00:10:00.118Z,-23406.75
2023-03-25T00:12:02.767Z,-23405.31
2023-03-25T00:14:05.466Z,-23403.41
2023-03-25T00:16:10.119Z,-23404.84
2023-03-25T00:18:12.957Z,-23405.00
2023-03-25T00:20:16.080Z,-23405.63
2023-03-25T00:22:18.950Z,-23407.53
2023-03-25T00:24:22.967Z,-23405.31
2023-03-25T00:26:30.130Z,-23405.16
2023-03-25T00:28:35.036Z,-23403.25
2023-03-25T00:30:39.010Z,-23403.88
2023-03-25T00:32:41.713Z,-23402.63
2023-03-25T00:34:47.271Z,-23402.13
2023-03-25T00:36:50.267Z,-23402.78
2023-03-25T00:38:52.976Z,-23402.13
2023-03-25T00:40:56.988Z,-23401.50
2023-03-25T00:42:59.627Z,-23402.78
2023-03-25T00:45:02.228Z,-23399.59
2023-03-25T00:47:04.959Z,-23394.34
2023-03-25T00:49:07.597Z,-23391.16
2023-03-25T00:51:13.610Z,-23391.34
2023-03-25T00:53:16.265Z,-23386.88
2023-03-25T00:55:19.121Z,-23387.03
2023-03-25T00:57:23.185Z,-23387.34
2023-03-25T00:59:25.896Z,-23387.84
2023-03-25T01:01:29.545Z,-23388.16
2023-03-25T01:03:32.591Z,-23388.16
2023-03-25T01:05:35.230Z,-23390.38
2023-03-25T01:07:38.360Z,-23388.00
2023-03-25T01:09:41.611Z,-23388.47
2023-03-25T01:11:46.133Z,-23387.53
2023-03-25T01:13:51.227Z,-23385.59
2023-03-25T01:15:54.112Z,-23384.66
2023-03-25T01:17:57.051Z,-23383.38
2023-03-25T01:19:59.916Z,-23384.81
2023-03-25T01:22:02.564Z,-23385.28
2023-03-25T01:24:05.545Z,-23381.78
2023-03-25T01:26:08.319Z,-23383.06
2023-03-25T01:28:11.111Z,-23382.13
2023-03-25T01:30:16.322Z,-23382.59
2023-03-25T01:32:18.952Z,-23383.22
2023-03-25T01:34:21.870Z,-23381.78
2023-03-25T01:36:24.595Z,-23380.22
2023-03-25T01:38:27.979Z,-23379.25
2023-03-25T01:40:30.846Z,-23378.31
2023-03-25T01:42:33.418Z,-23379.72
2023-03-25T01:45:21.763Z,-23382.13
2023-03-25T01:47:27.317Z,-23385.59
2023-03-25T01:49:38.807Z,-23381.78
2023-03-25T01:51:46.295Z,-23388.16
2023-03-25T01:53:50.387Z,-23387.19
2023-03-25T01:55:54.860Z,-23388.63
2023-03-25T01:57:59.706Z,-23388.00
2023-03-25T02:00:06.964Z,-23386.72
2023-03-25T02:02:17.612Z,-23386.41
2023-03-25T02:04:28.454Z,-23387.03
2023-03-25T02:06:36.333Z,-23385.94
2023-03-25T02:08:41.586Z,-23385.44
2023-03-25T02:10:46.974Z,-23384.03
2023-03-25T02:12:49.659Z,-23383.06
2023-03-25T02:14:52.766Z,-23383.06
2023-03-25T02:17:04.858Z,-23382.44
2023-03-25T02:19:40.897Z,-23382.59
2023-03-25T02:22:20.762Z,-23381.97
2023-03-25T02:24:46.424Z,-23383.06
2023-03-25T02:27:27.695Z,-23384.03
2023-03-25T02:29:50.614Z,-23383.69
2023-03-25T02:32:08.587Z,-23384.97
2023-03-25T02:34:41.713Z,-23384.03
2023-03-25T02:37:13.659Z,-23385.78
2023-03-25T02:39:23.717Z,-23385.59
2023-03-25T02:41:35.428Z,-23387.84
2023-03-25T02:43:45.650Z,-23386.88
2023-03-25T02:45:53.672Z,-23390.38
2023-03-25T02:48:01.642Z,-23387.53
2023-03-25T02:50:08.492Z,-23386.56
2023-03-25T02:52:13.069Z,-23389.09
2023-03-25T02:54:20.364Z,-23390.38
2023-03-25T02:56:26.751Z,-23389.25
2023-03-25T02:58:31.578Z,-23390.22
2023-03-25T03:00:38.289Z,-23391.66
2023-03-25T03:02:43.172Z,-23390.69
2023-03-25T03:04:48.745Z,-23391.81
2023-03-25T03:06:51.682Z,-23390.84
2023-03-25T03:09:07.802Z,-23392.59
2023-03-25T03:11:16.388Z,-23388.47
2023-03-25T03:13:27.894Z,-23389.59
2023-03-25T03:15:44.146Z,-23388.16
2023-03-25T03:17:52.800Z,-23387.53
2023-03-25T03:19:59.853Z,-23385.28
2023-03-25T03:22:08.558Z,-23384.97
2023-03-25T03:24:16.498Z,-23384.03
2023-03-25T03:26:29.348Z,-23381.78
2023-03-25T03:28:37.959Z,-23380.22
2023-03-25T03:30:46.545Z,-23377.97
2023-03-25T03:32:54.061Z,-23378.31
2023-03-25T03:35:00.493Z,-23375.44
2023-03-25T03:37:05.746Z,-23373.84
2023-03-25T03:39:14.120Z,-23370.50
2023-03-25T03:41:20.789Z,-23370.66
2023-03-25T03:43:28.289Z,-23371.47
2023-03-25T03:45:35.635Z,-23368.44
2023-03-25T03:47:43.001Z,-23368.59
2023-03-25T03:49:50.808Z,-23367.16
2023-03-25T03:51:57.684Z,-23366.84
2023-03-25T03:54:04.608Z,-23362.25
2023-03-25T03:56:13.007Z,-23362.06
2023-03-25T03:58:22.276Z,-23361.75
2023-03-25T04:00:31.125Z,-23359.53
2023-03-25T04:02:39.986Z,-23357.00
2023-03-25T04:04:43.623Z,-23356.03
2023-03-25T04:06:51.054Z,-23356.84
2023-03-25T04:08:59.808Z,-23357.47
2023-03-25T04:11:09.000Z,-23356.66
2023-03-25T04:13:14.980Z,-23356.34
2023-03-25T04:15:18.484Z,-23356.19
2023-03-25T04:17:22.737Z,-23356.34
2023-03-25T04:19:25.707Z,-23355.72
2023-03-25T04:21:29.939Z,-23355.09
2023-03-25T04:23:34.045Z,-23352.06
2023-03-25T04:25:36.739Z,-23350.31
2023-03-25T04:27:39.383Z,-23350.31
2023-03-25T04:29:43.922Z,-23349.66
2023-03-25T04:31:49.890Z,-23348.41
2023-03-25T04:33:54.150Z,-23347.44
2023-03-25T04:35:56.791Z,-23348.09
2023-03-25T04:37:59.717Z,-23346.16
2023-03-25T04:40:02.440Z,-23346.50
2023-03-25T04:42:05.737Z,-23344.09
2023-03-25T04:44:08.443Z,-23344.91
2023-03-25T04:46:14.630Z,-23345.53
2023-03-25T04:48:22.373Z,-23344.91
2023-03-25T04:50:29.288Z,-23345.22
2023-03-25T04:52:31.914Z,-23346.50
2023-03-25T04:54:34.572Z,-23350.16
2023-03-25T04:56:37.637Z,-23350.00
2023-03-25T04:58:42.192Z,-23350.78
2023-03-25T05:00:46.469Z,-23351.09
2023-03-25T05:02:50.682Z,-23349.66
2023-03-25T05:04:53.961Z,-23350.94
2023-03-25T05:07:01.124Z,-23350.31
2023-03-25T05:09:06.038Z,-23353.00
2023-03-25T05:11:08.904Z,-23353.19
2023-03-25T05:13:12.147Z,-23353.50
2023-03-25T05:15:15.233Z,-23352.84
2023-03-25T05:17:17.836Z,-23354.44
2023-03-25T05:19:20.770Z,-23356.50
2023-03-25T05:21:23.497Z,-23359.53
2023-03-25T05:23:27.530Z,-23362.72
2023-03-25T05:25:34.052Z,-23363.03
2023-03-25T05:27:37.354Z,-23364.47
2023-03-25T05:29:40.028Z,-23364.63
2023-03-25T05:31:44.735Z,-23367.50
2023-03-25T05:33:47.413Z,-23367.81
2023-03-25T05:35:50.433Z,-23370.03
2023-03-25T05:37:53.328Z,-23370.34
2023-03-25T05:39:57.897Z,-23371.63
2023-03-25T05:42:02.786Z,-23371.31
2023-03-25T05:44:06.120Z,-23371.31
2023-03-25T05:46:08.814Z,-23372.56
2023-03-25T05:48:11.541Z,-23373.22
2023-03-25T05:50:14.552Z,-23372.56
2023-03-25T05:52:18.095Z,-23370.50
2023-03-25T05:54:20.813Z,-23371.00
2023-03-25T05:56:25.653Z,-23370.34
2023-03-25T05:58:28.316Z,-23369.41
2023-03-25T06:00:32.449Z,-23368.13
2023-03-25T06:02:35.768Z,-23368.75
2023-03-25T06:04:41.192Z,-23371.00
2023-03-25T06:06:43.968Z,-23370.34
2023-03-25T06:08:49.939Z,-23374.16
2023-03-25T06:10:54.306Z,-23371.78
2023-03-25T06:12:58.351Z,-23372.09
2023-03-25T06:15:00.950Z,-23371.63
2023-03-25T06:17:03.621Z,-23372.41
2023-03-25T06:19:09.408Z,-23371.94
2023-03-25T06:21:12.390Z,-23374.16
2023-03-25T06:23:15.026Z,-23374.97
2023-03-25T06:25:20.577Z,-23375.44
2023-03-25T06:27:23.745Z,-23378.78
2023-03-25T06:29:27.745Z,-23379.88
2023-03-25T06:31:33.409Z,-23380.53
2023-03-25T06:33:42.310Z,-23382.59
2023-03-25T06:35:53.467Z,-23384.03
2023-03-25T06:37:56.192Z,-23384.50
2023-03-25T06:39:59.881Z,-23386.25
2023-03-25T06:42:02.682Z,-23393.88
2023-03-25T06:44:05.461Z,-23391.34
2023-03-25T06:46:09.596Z,-23391.34
2023-03-25T06:48:12.309Z,-23393.09
2023-03-25T06:50:15.369Z,-23391.97
2023-03-25T06:52:18.063Z,-23394.81
2023-03-25T06:54:20.677Z,-23396.88
2023-03-25T06:56:23.334Z,-23403.72
2023-03-25T06:58:34.390Z,-23401.50
2023-03-25T07:00:37.120Z,-23395.78
2023-03-25T07:02:41.359Z,-23404.19
2023-03-25T07:04:44.108Z,-23401.19
2023-03-25T07:06:46.733Z,-23398.66
2023-03-25T07:08:49.945Z,-23400.38
2023-03-25T07:10:52.673Z,-23396.09
2023-03-25T07:12:55.325Z,-23394.81
2023-03-25T07:14:59.040Z,-23397.06
2023-03-25T07:17:01.724Z,-23395.31
2023-03-25T07:19:06.047Z,-23395.00
2023-03-25T07:21:09.036Z,-23394.81
2023-03-25T07:23:11.670Z,-23396.88
2023-03-25T07:25:14.359Z,-23400.22
2023-03-25T07:27:17.008Z,-23398.31
2023-03-25T07:29:19.955Z,-23401.81
2023-03-25T07:31:22.993Z,-23404.19
2023-03-25T07:33:25.803Z,-23406.91
2023-03-25T07:35:29.904Z,-23404.53
2023-03-25T07:37:32.583Z,-23403.41
2023-03-25T07:39:35.284Z,-23410.72
2023-03-25T07:41:37.890Z,-23410.88
2023-03-25T07:43:41.115Z,-23421.81
2023-03-25T07:45:44.705Z,-23419.59
2023-03-25T07:47:50.378Z,-23453.72
2023-03-25T07:49:53.197Z,-23445.97
2023-03-25T07:51:57.149Z,-23433.09
2023-03-25T07:54:04.919Z,-23471.03
2023-03-25T07:56:09.150Z,-23463.72
2023-03-25T07:58:11.859Z,-23484.66
2023-03-25T08:00:15.258Z,-23469.75
2023-03-25T08:02:18.057Z,-23459.91
2023-03-25T08:04:20.721Z,-23458.34
2023-03-25T08:06:23.589Z,-23454.38
2023-03-25T08:08:30.037Z,-23444.38
2023-03-25T08:10:32.668Z,-23437.06
2023-03-25T08:12:36.783Z,-23432.47
2023-03-25T08:14:39.540Z,-23437.88
2023-03-25T08:16:42.285Z,-23439.28
2023-03-25T08:18:45.798Z,-23476.41
2023-03-25T08:20:50.711Z,-23451.19
2023-03-25T08:22:53.422Z,-23439.28
2023-03-25T08:24:57.742Z,-23441.53
2023-03-25T08:27:01.544Z,-23436.44
2023-03-25T08:29:18.135Z,-23437.41
2023-03-25T08:31:21.032Z,-23433.09
2023-03-25T08:33:27.102Z,-23433.09
2023-03-25T08:35:30.214Z,-23431.03
2023-03-25T08:37:35.255Z,-23426.91
2023-03-25T08:39:40.123Z,-23423.88
2023-03-25T08:41:45.252Z,-23422.47
2023-03-25T08:43:47.920Z,-23411.34
2023-03-25T08:45:50.761Z,-23405.47
2023-03-25T08:47:53.649Z,-23389.75
2023-03-25T08:49:56.311Z,-23388.78
2023-03-25T08:52:00.693Z,-23389.75
2023-03-25T08:54:03.497Z,-23397.38
2023-03-25T08:56:07.668Z,-23401.66
2023-03-25T08:58:11.658Z,-23414.53
2023-03-25T09:00:16.572Z,-23406.91
2023-03-25T09:02:19.232Z,-23406.28
2023-03-25T09:04:21.848Z,-23398.00
2023-03-25T09:06:24.520Z,-23395.63
2023-03-25T09:08:27.169Z,-23392.59
2023-03-25T09:10:29.814Z,-23393.22
2023-03-25T09:12:32.441Z,-23396.72
2023-03-25T09:14:36.468Z,-23391.66
2023-03-25T09:16:39.156Z,-23386.88
2023-03-25T09:18:41.912Z,-23385.94
2023-03-25T09:20:47.659Z,-23389.75
2023-03-25T09:22:50.710Z,-23391.97
2023-03-25T09:24:53.508Z,-23394.19
2023-03-25T09:26:56.395Z,-23399.44
2023-03-25T09:29:00.641Z,-23395.00
2023-03-25T09:31:04.843Z,-23399.44
2023-03-25T09:33:07.780Z,-23398.78
2023-03-25T09:35:10.846Z,-23397.38
2023-03-25T09:37:13.672Z,-23399.59
2023-03-25T09:39:16.463Z,-23426.75
2023-03-25T09:41:33.958Z,-23416.28
2023-03-25T09:43:49.108Z,-23418.81
2023-03-25T09:45:52.827Z,-23423.41
2023-03-25T09:48:02.162Z,-23426.59
2023-03-25T09:50:11.906Z,-23452.94
2023-03-25T09:52:18.012Z,-23464.69
2023-03-25T09:54:26.069Z,-23482.44
2023-03-25T09:56:32.421Z,-23458.19
2023-03-25T09:58:41.584Z,-23502.72
2023-03-25T10:00:46.107Z,-23470.69
2023-03-25T10:02:57.043Z,-23474.19
2023-03-25T10:05:22.282Z,-23503.03
2023-03-25T10:07:41.899Z,-23500.19
2023-03-25T10:09:52.334Z,-23508.44
2023-03-25T10:12:02.306Z,-23523.94
2023-03-25T10:14:11.156Z,-23501.13
2023-03-25T10:16:22.369Z,-23540.25
2023-03-25T10:18:45.807Z,-23565.72
2023-03-25T10:21:00.145Z,-23555.91
2023-03-25T10:23:12.624Z,-23534.38
2023-03-25T10:25:17.262Z,-23516.34
2023-03-25T10:27:24.165Z,-23539.78
2023-03-25T10:29:31.600Z,-23536.44
2023-03-25T10:31:40.650Z,-23518.72
2023-03-25T10:33:51.491Z,-23504.63
2023-03-25T10:35:58.440Z,-23510.00
2023-03-25T10:38:13.778Z,-23534.22
2023-03-25T10:40:25.338Z,-23508.44
2023-03-25T10:42:34.276Z,-23551.16
2023-03-25T10:44:36.928Z,-23546.59
2023-03-25T10:46:47.749Z,-23537.56
2023-03-25T10:48:51.284Z,-23517.13
2023-03-25T10:51:03.922Z,-23522.84
2023-03-25T10:53:07.171Z,-23509.38
2023-03-25T10:55:22.647Z,-23525.84
2023-03-25T10:57:29.173Z,-23512.38
2023-03-25T10:59:37.533Z,-23502.09
2023-03-25T11:01:42.711Z,-23509.69
2023-03-25T11:03:51.041Z,-23509.38
2023-03-25T11:05:55.265Z,-23522.53
2023-03-25T11:08:08.827Z,-23518.88
2023-03-25T11:10:21.280Z,-23516.66
2023-03-25T11:12:36.715Z,-23516.97
2023-03-25T11:14:45.079Z,-23518.41
2023-03-25T11:16:52.658Z,-23508.09
2023-03-25T11:18:55.364Z,-23517.28
2023-03-25T11:21:05.919Z,-23530.75
2023-03-25T11:23:17.685Z,-23516.81
2023-03-25T11:25:25.678Z,-23529.00
2023-03-25T11:27:30.431Z,-23528.38
2023-03-25T11:29:35.115Z,-23512.22
2023-03-25T11:31:39.529Z,-23504.94
2023-03-25T11:33:43.876Z,-23523.78
2023-03-25T11:35:49.246Z,-23518.56
2023-03-25T11:37:58.666Z,-23530.75
2023-03-25T11:40:11.745Z,-23529.47
2023-03-25T11:42:25.385Z,-23534.06
2023-03-25T11:44:31.137Z,-23540.09
2023-03-25T11:46:38.036Z,-23542.94
2023-03-25T11:48:42.766Z,-23544.53
2023-03-25T11:50:52.256Z,-23541.03
2023-03-25T11:52:59.578Z,-23541.03
2023-03-25T11:55:02.862Z,-23536.78
2023-03-25T11:57:12.087Z,-23529.00
2023-03-25T11:59:25.864Z,-23535.50
2023-03-25T12:01:31.708Z,-23538.03
2023-03-25T12:03:36.101Z,-23542.47
2023-03-25T12:05:39.102Z,-23528.22
2023-03-25T12:07:43.636Z,-23520.78
2023-03-25T12:09:55.860Z,-23542.63
2023-03-25T12:12:10.940Z,-23553.06
2023-03-25T12:14:33.322Z,-23541.03
2023-03-25T12:16:45.298Z,-23545.16
2023-03-25T12:19:10.691Z,-23549.28
2023-03-25T12:21:26.265Z,-23543.75
2023-03-25T12:23:42.242Z,-23546.75
2023-03-25T12:25:59.429Z,-23537.25
2023-03-25T12:28:21.563Z,-23541.53
2023-03-25T12:30:42.129Z,-23539.16
2023-03-25T12:32:55.007Z,-23535.03
2023-03-25T12:35:11.198Z,-23561.28
2023-03-25T12:37:24.972Z,-23552.59
2023-03-25T12:39:47.120Z,-23577.41
2023-03-25T12:42:00.579Z,-23552.75
2023-03-25T12:44:11.776Z,-23549.13
2023-03-25T12:46:31.025Z,-23550.53
2023-03-25T12:48:49.038Z,-23533.44
2023-03-25T12:51:01.279Z,-23527.75
2023-03-25T12:53:17.539Z,-23493.38
2023-03-25T12:55:44.534Z,-23487.66
2023-03-25T12:58:00.583Z,-23503.69
2023-03-25T13:00:33.274Z,-23523.00
2023-03-25T13:03:00.833Z,-23500.81
2023-03-25T13:05:18.851Z,-23512.38
2023-03-25T13:07:27.237Z,-23526.16
2023-03-25T13:09:35.442Z,-23535.34
2023-03-25T13:11:42.324Z,-23517.78
2023-03-25T13:13:49.545Z,-23534.72
2023-03-25T13:16:03.283Z,-23540.72
2023-03-25T13:18:11.719Z,-23539.16
2023-03-25T13:20:17.921Z,-23545.47
2023-03-25T13:22:25.836Z,-23533.44
2023-03-25T13:24:36.005Z,-23530.28
2023-03-25T13:26:42.099Z,-23546.75
2023-03-25T13:28:49.284Z,-23529.16
2023-03-25T13:30:52.808Z,-23529.97
2023-03-25T13:32:58.214Z,-23520.16
2023-03-25T13:35:07.416Z,-23507.78
2023-03-25T13:37:16.601Z,-23521.72
2023-03-25T13:39:23.863Z,-23521.41
2023-03-25T13:41:32.115Z,-23526.78
2023-03-25T13:43:42.919Z,-23517.63
2023-03-25T13:45:52.337Z,-23520.16
2023-03-25T13:48:03.677Z,-23537.72
2023-03-25T13:50:15.626Z,-23538.03
2023-03-25T13:52:18.901Z,-23532.50
2023-03-25T13:54:26.433Z,-23550.84
2023-03-25T13:57:03.179Z,-23552.75
2023-03-25T13:59:26.079Z,-23534.38
2023-03-25T14:01:49.680Z,-23545.47
2023-03-25T14:04:18.341Z,-23557.19
2023-03-25T14:06:46.671Z,-23553.84
2023-03-25T14:09:27.382Z,-23538.84
2023-03-25T14:11:35.973Z,-23527.91
2023-03-25T14:13:42.248Z,-23526.63
2023-03-25T14:15:53.194Z,-23524.25
2023-03-25T14:17:58.417Z,-23520.47
2023-03-25T14:20:01.416Z,-23516.03
2023-03-25T14:22:09.393Z,-23496.88
2023-03-25T14:24:17.078Z,-23458.66
2023-03-25T14:26:20.195Z,-23472.13
2023-03-25T14:28:37.352Z,-23488.00
2023-03-25T14:30:40.153Z,-23500.97
2023-03-25T14:32:44.689Z,-23513.19
2023-03-25T14:34:50.426Z,-23520.63
2023-03-25T14:37:25.981Z,-23534.72
2023-03-25T14:39:39.520Z,-23537.56
2023-03-25T14:42:02.824Z,-23533.91
2023-03-25T14:44:19.676Z,-23529.34
2023-03-25T14:46:23.972Z,-23537.25
2023-03-25T14:48:31.580Z,-23536.44
2023-03-25T14:50:35.746Z,-23541.84
2023-03-25T14:52:42.537Z,-23549.28
2023-03-25T14:54:49.967Z,-23542.00
2023-03-25T14:57:01.756Z,-23542.94
2023-03-25T14:59:10.778Z,-23550.53
2023-03-25T15:01:18.828Z,-23542.31
2023-03-25T15:03:22.746Z,-23548.00
2023-03-25T15:05:28.721Z,-23556.22
2023-03-25T15:07:44.867Z,-23554.97
2023-03-25T15:09:53.691Z,-23551.66
2023-03-25T15:11:59.970Z,-23552.75
2023-03-25T15:14:06.852Z,-23557.66
2023-03-25T15:16:19.635Z,-23555.91
2023-03-25T15:18:56.026Z,-23552.75
2023-03-25T15:21:04.065Z,-23559.72
2023-03-25T15:23:47.516Z,-23554.34
2023-03-25T15:25:52.885Z,-23545.94
2023-03-25T15:28:07.669Z,-23552.91
2023-03-25T15:30:28.757Z,-23552.13
2023-03-25T15:32:50.024Z,-23560.34
2023-03-25T15:35:40.568Z,-23540.72
2023-03-25T15:38:04.286Z,-23541.34
2023-03-25T15:40:19.617Z,-23534.06
2023-03-25T15:42:40.096Z,-23540.41
2023-03-25T15:45:09.749Z,-23540.72
2023-03-25T15:47:51.796Z,-23538.84
2023-03-25T15:50:20.633Z,-23535.97
2023-03-25T15:52:37.519Z,-23528.69
2023-03-25T15:54:44.725Z,-23534.38
2023-03-25T15:56:51.033Z,-23529.47
2023-03-25T15:58:59.443Z,-23521.41
2023-03-25T16:01:21.550Z,-23519.34
2023-03-25T16:03:30.092Z,-23525.38
2023-03-25T16:05:35.177Z,-23525.22
2023-03-25T16:07:38.095Z,-23526.63
2023-03-25T16:09:46.090Z,-23521.72
2023-03-25T16:11:50.149Z,-23522.38
2023-03-25T16:14:04.579Z,-23523.94
2023-03-25T16:16:09.227Z,-23523.31
2023-03-25T16:18:16.600Z,-23528.06
2023-03-25T16:20:24.641Z,-23518.88
2023-03-25T16:22:29.186Z,-23517.63
2023-03-25T16:24:34.011Z,-23518.72
2023-03-25T16:26:39.230Z,-23520.47
2023-03-25T16:28:43.423Z,-23523.31
2023-03-25T16:30:53.246Z,-23522.38
2023-03-25T16:33:12.787Z,-23520.16
2023-03-25T16:35:21.088Z,-23516.81
2023-03-25T16:37:25.254Z,-23514.13
2023-03-25T16:39:28.726Z,-23513.19
2023-03-25T16:41:31.716Z,-23511.59
2023-03-25T16:43:34.770Z,-23514.44
2023-03-25T16:45:39.896Z,-23511.28
2023-03-25T16:47:44.085Z,-23512.84
2023-03-25T16:49:52.414Z,-23513.50
2023-03-25T16:51:57.514Z,-23511.28
2023-03-25T16:54:00.231Z,-23510.50
2023-03-25T16:56:05.689Z,-23508.44
2023-03-25T16:58:16.089Z,-23505.91
2023-03-25T17:00:22.237Z,-23507.78
2023-03-25T17:02:29.206Z,-23506.53
2023-03-25T17:04:41.824Z,-23506.84
2023-03-25T17:06:47.535Z,-23506.53
2023-03-25T17:08:51.949Z,-23506.22
2023-03-25T17:10:58.152Z,-23504.63
2023-03-25T17:13:05.434Z,-23505.25
2023-03-25T17:15:15.325Z,-23502.88
2023-03-25T17:17:33.029Z,-23502.09
2023-03-25T17:19:37.113Z,-23499.56
2023-03-25T17:22:01.699Z,-23499.06
2023-03-25T17:24:21.926Z,-23498.28
2023-03-25T17:26:26.628Z,-23497.81
2023-03-25T17:28:35.274Z,-23497.03
2023-03-25T17:30:42.651Z,-23497.03
2023-03-25T17:32:47.572Z,-23495.44
2023-03-25T17:35:06.381Z,-23493.53
2023-03-25T17:37:13.780Z,-23493.53
2023-03-25T17:39:19.769Z,-23491.31
2023-03-25T17:41:23.016Z,-23491.94
2023-03-25T17:43:26.532Z,-23491.47
2023-03-25T17:45:30.166Z,-23490.03
2023-03-25T17:47:32.903Z,-23488.78
2023-03-25T17:49:36.904Z,-23488.16
2023-03-25T17:51:40.734Z,-23484.97
2023-03-25T17:53:43.421Z,-23485.75
2023-03-25T17:55:46.843Z,-23483.72
2023-03-25T17:57:50.635Z,-23482.13
2023-03-25T17:59:55.618Z,-23479.75
2023-03-25T18:01:58.465Z,-23478.94
2023-03-25T18:04:01.103Z,-23477.69
2023-03-25T18:06:05.500Z,-23476.09
2023-03-25T18:08:10.908Z,-23476.09
2023-03-25T18:10:18.454Z,-23478.00
2023-03-25T18:12:21.135Z,-23477.69
2023-03-25T18:14:25.279Z,-23478.31
2023-03-25T18:16:27.933Z,-23479.91
2023-03-25T18:18:30.633Z,-23479.25
2023-03-25T18:20:35.532Z,-23477.69
2023-03-25T18:22:39.522Z,-23474.50
2023-03-25T18:24:42.170Z,-23473.09
2023-03-25T18:26:46.807Z,-23472.28
2023-03-25T18:28:49.773Z,-23470.69
2023-03-25T18:30:55.216Z,-23469.44
2023-03-25T18:32:58.595Z,-23466.56
2023-03-25T18:35:01.191Z,-23467.22
2023-03-25T18:37:08.405Z,-23464.69
2023-03-25T18:39:16.694Z,-23464.53
2023-03-25T18:41:19.347Z,-23462.13
2023-03-25T18:43:24.675Z,-23461.50
2023-03-25T18:45:27.566Z,-23458.81
2023-03-25T18:47:30.323Z,-23455.78
2023-03-25T18:49:32.989Z,-23454.53
2023-03-25T18:51:37.417Z,-23454.53
2023-03-25T18:53:40.859Z,-23449.13
2023-03-25T18:55:46.043Z,-23448.97
2023-03-25T18:57:49.258Z,-23448.34
2023-03-25T18:59:51.890Z,-23446.13
2023-03-25T19:01:54.503Z,-23442.78
2023-03-25T19:04:02.298Z,-23443.41
2023-03-25T19:06:07.466Z,-23441.69
2023-03-25T19:08:16.423Z,-23440.72
2023-03-25T19:10:21.780Z,-23439.13
2023-03-25T19:12:25.726Z,-23439.94
2023-03-25T19:14:28.353Z,-23436.75
2023-03-25T19:16:31.072Z,-23438.19
2023-03-25T19:18:34.691Z,-23435.00
2023-03-25T19:20:37.346Z,-23436.28
2023-03-25T19:22:40.816Z,-23434.22
2023-03-25T19:24:43.873Z,-23431.34
2023-03-25T19:26:46.845Z,-23431.84
2023-03-25T19:28:50.887Z,-23431.53
2023-03-25T19:30:55.899Z,-23432.63
2023-03-25T19:32:58.810Z,-23433.59
2023-03-25T19:35:01.755Z,-23434.53
2023-03-25T19:37:05.130Z,-23433.75
2023-03-25T19:39:08.847Z,-23433.28
2023-03-25T19:41:14.121Z,-23430.56
2023-03-25T19:43:16.907Z,-23432.47
2023-03-25T19:45:21.560Z,-23425.97
2023-03-25T19:47:24.360Z,-23415.16
2023-03-25T19:49:39.414Z,-23409.44
2023-03-25T19:51:43.106Z,-23411.97
2023-03-25T19:53:46.060Z,-23413.72
2023-03-25T19:55:48.738Z,-23406.28
2023-03-25T19:57:52.237Z,-23408.50
2023-03-25T19:59:55.187Z,-23408.66
2023-03-25T20:02:00.289Z,-23409.13
2023-03-25T20:04:04.076Z,-23409.91
2023-03-25T20:06:07.553Z,-23406.28
2023-03-25T20:08:11.648Z,-23405.63
2023-03-25T20:10:20.148Z,-23402.44
2023-03-25T20:12:22.997Z,-23398.78
2023-03-25T20:14:25.977Z,-23402.13
2023-03-25T20:16:30.767Z,-23401.50
2023-03-25T20:18:34.792Z,-23401.19
2023-03-25T20:20:37.461Z,-23402.78
2023-03-25T20:22:41.180Z,-23400.38
2023-03-25T20:24:43.850Z,-23399.91
2023-03-25T20:26:46.746Z,-23405.63
2023-03-25T20:28:49.407Z,-23403.88
2023-03-25T20:30:52.416Z,-23406.28
2023-03-25T20:32:55.356Z,-23405.94
2023-03-25T20:34:59.515Z,-23406.91
2023-03-25T20:37:02.396Z,-23407.53
2023-03-25T20:39:05.921Z,-23410.72
2023-03-25T20:41:08.904Z,-23408.97
2023-03-25T20:43:13.746Z,-23408.81
2023-03-25T20:45:18.435Z,-23408.16
2023-03-25T20:47:21.284Z,-23411.03
2023-03-25T20:49:24.076Z,-23404.84
2023-03-25T20:51:28.637Z,-23408.34
2023-03-25T20:53:31.904Z,-23404.53
2023-03-25T20:55:34.834Z,-23404.34
2023-03-25T20:57:37.478Z,-23405.31
2023-03-25T20:59:40.308Z,-23404.19
2023-03-25T21:01:43.144Z,-23403.56
2023-03-25T21:03:45.843Z,-23405.00
2023-03-25T21:05:48.929Z,-23404.34
2023-03-25T21:07:52.994Z,-23406.75
2023-03-25T21:09:55.828Z,-23408.66
2023-03-25T21:11:58.562Z,-23408.81
2023-03-25T21:14:01.158Z,-23409.75
2023-03-25T21:16:04.467Z,-23411.66
2023-03-25T21:18:08.852Z,-23411.03
2023-03-25T21:20:12.986Z,-23410.06
2023-03-25T21:22:15.774Z,-23407.38
2023-03-25T21:24:21.544Z,-23404.34
2023-03-25T21:26:24.860Z,-23407.53
2023-03-25T21:28:28.699Z,-23407.22
2023-03-25T21:30:31.664Z,-23410.25
2023-03-25T21:32:34.386Z,-23410.72
2023-03-25T21:34:37.022Z,-23412.31
2023-03-25T21:36:39.588Z,-23408.66
2023-03-25T21:38:42.827Z,-23407.84
2023-03-25T21:40:47.242Z,-23410.06
2023-03-25T21:42:50.787Z,-23408.16
2023-03-25T21:44:53.449Z,-23410.25
2023-03-25T21:46:56.048Z,-23409.44
2023-03-25T21:49:00.745Z,-23407.22
2023-03-25T21:51:04.652Z,-23410.72
2023-03-25T21:53:13.233Z,-23413.41
2023-03-25T21:55:17.098Z,-23413.88
2023-03-25T21:57:21.872Z,-23416.28
2023-03-25T21:59:24.848Z,-23414.84
2023-03-25T22:01:29.502Z,-23410.72
2023-03-25T22:03:35.291Z,-23407.53
2023-03-25T22:05:38.280Z,-23410.25
2023-03-25T22:07:41.500Z,-23407.53
2023-03-25T22:09:44.109Z,-23408.97
2023-03-25T22:11:46.777Z,-23406.91
2023-03-25T22:13:51.647Z,-23406.28
2023-03-25T22:15:54.530Z,-23405.16
2023-03-25T22:17:57.341Z,-23405.78
2023-03-25T22:19:59.943Z,-23401.81
2023-03-25T22:22:03.277Z,-23401.19
2023-03-25T22:24:07.787Z,-23399.44
2023-03-25T22:26:11.209Z,-23399.75
2023-03-25T22:28:13.810Z,-23400.88
2023-03-25T22:30:17.990Z,-23395.78
2023-03-25T22:32:20.972Z,-23397.22
2023-03-25T22:34:23.706Z,-23397.06
2023-03-25T22:36:26.428Z,-23398.00
2023-03-25T22:38:29.051Z,-23396.72
2023-03-25T22:40:31.808Z,-23395.00
2023-03-25T22:42:34.444Z,-23396.25
2023-03-25T22:44:37.162Z,-23400.72
2023-03-25T22:46:41.278Z,-23397.69
2023-03-25T22:48:44.227Z,-23399.59
2023-03-25T22:50:46.834Z,-23403.41
2023-03-25T22:52:49.545Z,-23406.09
2023-03-25T22:54:52.339Z,-23403.72
2023-03-25T22:56:55.038Z,-23399.59
2023-03-25T22:58:57.686Z,-23400.22
2023-03-25T23:01:02.967Z,-23402.94
2023-03-25T23:03:08.456Z,-23406.75
2023-03-25T23:05:11.277Z,-23406.91
2023-03-25T23:07:14.201Z,-23407.84
2023-03-25T23:09:36.944Z,-23408.50
2023-03-25T23:11:40.133Z,-23408.97
2023-03-25T23:13:44.626Z,-23408.00
2023-03-25T23:15:47.562Z,-23406.91
2023-03-25T23:17:50.411Z,-23405.00
2023-03-25T23:19:54.428Z,-23405.31
2023-03-25T23:21:57.360Z,-23404.03
2023-03-25T23:24:02.919Z,-23404.69
2023-03-25T23:26:08.524Z,-23395.31
2023-03-25T23:28:12.465Z,-23399.91
2023-03-25T23:30:15.167Z,-23395.78
2023-03-25T23:32:17.844Z,-23396.72
2023-03-25T23:34:20.517Z,-23397.38
2023-03-25T23:36:25.690Z,-23392.44
2023-03-25T23:38:28.823Z,-23394.19
2023-03-25T23:40:31.529Z,-23395.16
2023-03-25T23:42:35.466Z,-23385.59
2023-03-25T23:44:38.945Z,-23382.44
2023-03-25T23:46:42.648Z,-23382.44
2023-03-25T23:48:45.744Z,-23382.59
2023-03-25T23:50:48.459Z,-23387.69
2023-03-25T23:52:52.492Z,-23385.13
2023-03-25T23:54:55.307Z,-23382.75
2023-03-25T23:56:58.649Z,-23381.78
2023-03-25T23:59:02.258Z,-23380.38
